createdAt,value
2022-12-12T00:00:49.122Z,18.75
2022-12-12T00:04:50.747Z,17.75
2022-12-12T00:08:52.532Z,19.52
2022-12-12T00:12:54.212Z,19.08
2022-12-12T00:16:55.879Z,19.37
2022-12-12T00:20:57.977Z,17.52
2022-12-12T00:24:59.675Z,17.30
2022-12-12T00:29:04.432Z,18.27
2022-12-12T00:33:06.045Z,18.75
2022-12-12T00:37:07.674Z,17.77
2022-12-12T00:41:09.595Z,19.05
2022-12-12T00:45:11.785Z,18.52
2022-12-12T00:49:14.449Z,18.12
2022-12-12T00:53:16.487Z,18.48
2022-12-12T00:57:18.188Z,18.27
2022-12-12T01:01:23.811Z,17.65
2022-12-12T01:05:26.672Z,17.20
2022-12-12T01:09:28.313Z,17.40
2022-12-12T01:13:30.239Z,17.98
2022-12-12T01:17:37.527Z,17.40
2022-12-12T01:21:39.188Z,17.10
2022-12-12T01:25:41.343Z,18.42
2022-12-12T01:29:42.967Z,17.52
2022-12-12T01:33:45.925Z,18.90
2022-12-12T01:37:49.173Z,18.00
2022-12-12T01:41:50.779Z,17.65
2022-12-12T01:45:58.616Z,17.42
2022-12-12T01:50:08.208Z,16.77
2022-12-12T01:54:19.688Z,17.90
2022-12-12T01:58:21.478Z,17.20
2022-12-12T02:02:23.225Z,17.85
2022-12-12T02:06:27.736Z,17.90
2022-12-12T02:10:29.963Z,17.50
2022-12-12T02:14:41.902Z,15.90
2022-12-12T02:19:11.612Z,17.40
2022-12-12T02:23:34.390Z,17.62
2022-12-12T02:28:03.527Z,17.27
2022-12-12T02:32:36.035Z,16.12
2022-12-12T02:37:03.174Z,17.62
2022-12-12T02:41:23.509Z,17.48
2022-12-12T02:45:34.454Z,17.00
2022-12-12T02:49:48.686Z,17.85
2022-12-12T02:53:50.415Z,16.77
2022-12-12T02:57:54.029Z,16.77
2022-12-12T03:02:23.519Z,18.35
2022-12-12T03:07:00.850Z,17.05
2022-12-12T03:11:07.928Z,19.58
2022-12-12T03:19:30.403Z,17.03
2022-12-12T03:23:38.382Z,17.35
2022-12-12T03:27:56.205Z,17.87
2022-12-12T03:32:07.062Z,19.37
2022-12-12T03:36:21.877Z,18.25
2022-12-12T03:40:30.491Z,18.60
2022-12-12T03:44:41.661Z,17.83
2022-12-12T03:49:05.614Z,17.83
2022-12-12T03:53:13.408Z,18.92
2022-12-12T03:57:22.059Z,19.83
2022-12-12T04:01:30.938Z,18.55
2022-12-12T04:05:39.183Z,18.40
2022-12-12T04:09:59.683Z,17.67
2022-12-12T04:14:41.653Z,17.65
2022-12-12T04:18:52.374Z,18.50
2022-12-12T04:23:30.582Z,17.58
2022-12-12T04:27:41.292Z,16.95
2022-12-12T04:32:07.477Z,18.25
2022-12-12T04:36:11.266Z,17.58
2022-12-12T04:40:34.984Z,17.83
2022-12-12T04:44:40.073Z,17.23
2022-12-12T04:48:53.540Z,17.42
2022-12-12T04:52:58.038Z,17.20
2022-12-12T04:57:03.654Z,16.98
2022-12-12T05:01:23.687Z,16.23
2022-12-12T05:05:57.955Z,17.75
2022-12-12T05:10:00.047Z,16.42
2022-12-12T05:14:01.727Z,18.12
2022-12-12T05:18:07.666Z,17.73
2022-12-12T05:22:09.270Z,17.40
2022-12-12T05:26:22.184Z,17.20
2022-12-12T05:30:24.069Z,16.73
2022-12-12T05:34:25.773Z,17.25
2022-12-12T05:38:27.423Z,17.35
2022-12-12T05:42:29.469Z,19.35
2022-12-12T05:46:31.164Z,18.37
2022-12-12T05:50:32.809Z,16.73
2022-12-12T05:54:34.426Z,16.65
2022-12-12T05:58:36.077Z,18.40
2022-12-12T06:02:37.830Z,18.10
2022-12-12T06:06:39.596Z,18.58
2022-12-12T06:10:41.325Z,18.62
2022-12-12T06:14:42.925Z,19.00
2022-12-12T06:18:49.653Z,20.23
2022-12-12T06:22:53.759Z,20.35
2022-12-12T06:26:55.842Z,20.15
2022-12-12T06:30:57.721Z,20.40
2022-12-12T06:34:59.474Z,19.42
2022-12-12T06:39:01.515Z,20.27
2022-12-12T06:43:03.153Z,20.98
2022-12-12T06:47:04.800Z,20.08
2022-12-12T06:51:09.020Z,20.45
2022-12-12T06:55:11.074Z,19.40
2022-12-12T06:59:13.500Z,18.85
2022-12-12T07:03:15.203Z,19.77
2022-12-12T07:07:17.146Z,20.48
2022-12-12T07:11:24.093Z,19.75
2022-12-12T07:19:27.381Z,18.42
2022-12-12T07:23:29.019Z,19.35
2022-12-12T07:27:30.674Z,19.65
2022-12-12T07:31:32.561Z,19.45
2022-12-12T07:35:34.795Z,18.90
2022-12-12T07:39:37.118Z,18.15
2022-12-12T07:43:43.698Z,18.17
2022-12-12T07:47:46.894Z,17.33
2022-12-12T07:51:49.484Z,17.00
2022-12-12T07:55:51.273Z,17.67
2022-12-12T07:59:52.888Z,17.52
2022-12-12T08:03:54.639Z,18.50
2022-12-12T08:07:56.359Z,17.20
2022-12-12T08:11:59.626Z,17.55
2022-12-12T08:16:01.437Z,18.23
2022-12-12T08:20:03.677Z,17.02
2022-12-12T08:24:05.599Z,17.17
2022-12-12T08:28:07.223Z,16.83
2022-12-12T08:32:08.892Z,16.98
2022-12-12T08:36:25.683Z,15.48
2022-12-12T08:40:27.314Z,15.18
2022-12-12T08:44:28.983Z,13.93
2022-12-12T08:48:30.785Z,12.30
2022-12-12T08:52:32.590Z,12.32
2022-12-12T08:56:34.327Z,12.37
2022-12-12T09:00:36.570Z,11.45
2022-12-12T09:04:38.426Z,10.80
2022-12-12T09:08:40.553Z,11.73
2022-12-12T09:12:42.435Z,10.70
2022-12-12T09:16:44.141Z,10.80
2022-12-12T09:20:54.547Z,11.40
2022-12-12T09:24:56.206Z,10.43
2022-12-12T09:28:57.869Z,11.25
2022-12-12T09:32:59.526Z,11.18
2022-12-12T09:37:01.563Z,10.25
2022-12-12T09:41:09.345Z,10.00
2022-12-12T09:45:11.649Z,10.73
2022-12-12T09:49:27.367Z,10.20
2022-12-12T09:53:29.204Z,10.93
2022-12-12T09:57:48.208Z,10.63
2022-12-12T10:02:05.646Z,11.30
2022-12-12T10:06:36.552Z,9.93
2022-12-12T10:10:39.140Z,9.77
2022-12-12T10:14:48.411Z,10.30
2022-12-12T10:18:53.171Z,10.68
2022-12-12T10:23:14.931Z,10.77
2022-12-12T10:27:16.556Z,10.85
2022-12-12T10:31:18.315Z,11.30
2022-12-12T10:35:38.629Z,10.98
2022-12-12T10:39:40.255Z,9.73
2022-12-12T10:44:05.053Z,11.20
2022-12-12T10:48:06.795Z,10.77
2022-12-12T10:52:21.943Z,10.65
2022-12-12T10:56:26.491Z,10.18
2022-12-12T11:00:49.422Z,10.27
2022-12-12T11:05:02.620Z,10.25
2022-12-12T11:09:25.750Z,10.10
2022-12-12T11:13:27.528Z,10.70
2022-12-12T11:17:34.084Z,10.60
2022-12-12T11:21:36.899Z,12.18
2022-12-12T11:25:38.625Z,11.18
2022-12-12T11:29:40.257Z,11.12
2022-12-12T11:33:48.545Z,11.07
2022-12-12T11:37:59.143Z,11.35
2022-12-12T11:42:30.989Z,11.40
2022-12-12T11:46:33.460Z,11.48
2022-12-12T11:50:45.774Z,11.38
2022-12-12T11:54:47.587Z,11.57
2022-12-12T11:58:58.026Z,11.23
2022-12-12T12:03:29.134Z,11.40
2022-12-12T12:07:47.845Z,10.70
2022-12-12T12:12:04.262Z,11.25
2022-12-12T12:17:01.451Z,11.00
2022-12-12T12:21:26.840Z,11.43
2022-12-12T12:25:41.894Z,11.40
2022-12-12T12:30:21.183Z,10.35
2022-12-12T12:34:32.566Z,10.57
2022-12-12T12:39:08.372Z,10.55
2022-12-12T12:43:34.815Z,10.77
2022-12-12T12:48:08.792Z,10.48
2022-12-12T12:52:36.264Z,10.18
2022-12-12T12:56:48.847Z,10.73
2022-12-12T13:00:59.815Z,10.65
2022-12-12T13:05:11.865Z,11.10
2022-12-12T13:09:33.971Z,11.12
2022-12-12T13:13:39.712Z,11.10
2022-12-12T13:17:50.454Z,10.45
2022-12-12T13:22:02.366Z,11.57
2022-12-12T13:26:12.355Z,11.07
2022-12-12T13:30:23.935Z,10.80
2022-12-12T13:34:27.829Z,11.05
2022-12-12T13:38:33.838Z,10.30
2022-12-12T13:42:54.311Z,11.35
2022-12-12T13:46:55.991Z,10.32
2022-12-12T13:51:30.095Z,11.50
2022-12-12T13:55:32.259Z,11.15
2022-12-12T13:59:53.932Z,11.65
2022-12-12T14:03:55.750Z,10.63
2022-12-12T14:08:13.489Z,10.85
2022-12-12T14:12:32.183Z,10.82
2022-12-12T14:16:35.942Z,11.63
2022-12-12T14:20:42.623Z,11.43
2022-12-12T14:25:17.741Z,10.68
2022-12-12T14:29:19.328Z,11.10
2022-12-12T14:33:51.154Z,9.73
2022-12-12T14:38:27.803Z,10.75
2022-12-12T14:43:18.914Z,10.15
2022-12-12T14:46:51.518Z,10.23
2022-12-12T14:50:59.166Z,10.35
2022-12-12T14:55:05.283Z,9.50
2022-12-12T14:59:13.265Z,11.63
2022-12-12T15:03:15.527Z,11.70
2022-12-12T15:07:25.190Z,10.73
2022-12-12T15:11:31.254Z,10.45
2022-12-12T15:15:34.681Z,10.37
2022-12-12T15:19:43.475Z,10.88
2022-12-12T15:23:45.410Z,10.73
2022-12-12T15:27:55.693Z,10.95
2022-12-12T15:32:09.202Z,9.98
2022-12-12T15:36:28.576Z,10.90
2022-12-12T15:40:40.415Z,9.95
2022-12-12T15:44:43.992Z,10.27
2022-12-12T15:48:52.325Z,11.25
2022-12-12T15:53:00.973Z,11.35
2022-12-12T15:57:03.048Z,15.98
2022-12-12T16:01:20.235Z,15.30
2022-12-12T16:05:30.063Z,11.02
2022-12-12T16:09:31.841Z,11.55
2022-12-12T16:13:41.774Z,10.23
2022-12-12T16:17:58.554Z,10.88
2022-12-12T16:22:29.255Z,10.65
2022-12-12T16:26:30.899Z,10.70
2022-12-12T16:30:32.886Z,10.52
2022-12-12T16:34:34.573Z,12.63
2022-12-12T16:38:36.606Z,22.35
2022-12-12T16:42:38.328Z,18.10
2022-12-12T16:46:40.034Z,11.75
2022-12-12T16:50:41.953Z,10.80
2022-12-12T16:54:51.047Z,10.93
2022-12-12T16:58:56.050Z,10.30
2022-12-12T17:02:57.760Z,10.35
2022-12-12T17:06:59.398Z,11.35
2022-12-12T17:11:10.431Z,11.57
2022-12-12T17:15:16.889Z,11.93
2022-12-12T17:19:18.662Z,12.47
2022-12-12T17:23:28.324Z,11.70
2022-12-12T17:27:30.112Z,12.10
2022-12-12T17:31:32.292Z,12.52
2022-12-12T17:35:33.957Z,12.18
2022-12-12T17:39:35.590Z,11.68
2022-12-12T17:43:37.854Z,12.25
2022-12-12T17:47:39.499Z,12.75
2022-12-12T17:51:41.144Z,12.52
2022-12-12T17:55:54.445Z,11.93
2022-12-12T18:00:06.882Z,13.40
2022-12-12T18:04:08.950Z,16.67
2022-12-12T18:08:12.405Z,19.37
2022-12-12T18:12:14.173Z,30.10
2022-12-12T18:16:16.899Z,18.77
2022-12-12T18:20:19.396Z,14.93
2022-12-12T18:24:22.951Z,15.50
2022-12-12T18:28:25.006Z,19.70
2022-12-12T18:32:26.592Z,22.42
2022-12-12T18:36:30.166Z,22.85
2022-12-12T18:40:31.818Z,21.35
2022-12-12T18:44:33.559Z,23.20
2022-12-12T18:48:38.429Z,19.65
2022-12-12T18:52:40.123Z,21.75
2022-12-12T18:56:42.203Z,21.20
2022-12-12T19:00:43.841Z,18.10
2022-12-12T19:04:46.876Z,16.30
2022-12-12T19:08:49.159Z,14.68
2022-12-12T19:12:50.906Z,14.25
2022-12-12T19:16:52.660Z,14.85
2022-12-12T19:20:54.443Z,15.45
2022-12-12T19:24:56.082Z,15.25
2022-12-12T19:28:59.827Z,16.17
2022-12-12T19:33:01.472Z,14.25
2022-12-12T19:37:03.146Z,15.43
2022-12-12T19:41:09.399Z,14.15
2022-12-12T19:45:11.085Z,15.50
2022-12-12T19:49:14.574Z,16.48
2022-12-12T19:53:16.225Z,16.35
2022-12-12T19:57:18.009Z,14.93
2022-12-12T20:01:22.367Z,16.08
2022-12-12T20:05:24.112Z,15.20
2022-12-12T20:09:28.267Z,15.60
2022-12-12T20:13:29.926Z,15.07
2022-12-12T20:17:31.513Z,15.63
2022-12-12T20:25:55.175Z,22.35
2022-12-12T20:29:56.824Z,17.73
2022-12-12T20:33:59.404Z,17.10
2022-12-12T20:38:01.117Z,17.25
2022-12-12T20:42:02.783Z,17.30
2022-12-12T20:46:17.329Z,22.30
2022-12-12T20:50:19.084Z,16.92
2022-12-12T20:54:22.157Z,16.92
2022-12-12T20:58:23.880Z,16.30
2022-12-12T21:02:30.058Z,16.98
2022-12-12T21:06:40.863Z,17.58
2022-12-12T21:10:42.740Z,18.08
2022-12-12T21:14:45.377Z,18.90
2022-12-12T21:18:47.599Z,20.12
2022-12-12T21:22:49.239Z,19.25
2022-12-12T21:26:51.168Z,19.52
2022-12-12T21:30:52.877Z,17.92
2022-12-12T21:34:54.542Z,18.10
2022-12-12T21:38:58.336Z,18.23
2022-12-12T21:42:59.982Z,17.17
2022-12-12T21:47:01.832Z,20.80
2022-12-12T21:51:06.188Z,18.70
2022-12-12T21:55:08.158Z,17.27
2022-12-12T21:59:11.875Z,16.10
2022-12-12T22:03:13.589Z,22.73
2022-12-12T22:07:15.281Z,22.65
2022-12-12T22:11:33.861Z,21.12
2022-12-12T22:15:40.342Z,33.90
2022-12-12T22:19:42.023Z,35.65
2022-12-12T22:23:43.691Z,28.73
2022-12-12T22:27:45.282Z,23.70
2022-12-12T22:31:49.769Z,14.65
2022-12-12T22:35:51.526Z,15.00
2022-12-12T22:39:53.124Z,18.10
2022-12-12T22:43:56.705Z,21.90
2022-12-12T22:47:58.351Z,18.50
2022-12-12T22:52:00.169Z,15.35
2022-12-12T22:56:03.033Z,15.50
2022-12-12T23:00:06.036Z,15.35
2022-12-12T23:04:07.890Z,14.65
2022-12-12T23:08:10.901Z,14.77
2022-12-12T23:12:12.681Z,14.68
2022-12-12T23:16:20.858Z,15.50
2022-12-12T23:20:22.681Z,15.25
2022-12-12T23:24:24.347Z,15.85
2022-12-12T23:28:26.033Z,16.62
2022-12-12T23:32:27.628Z,15.15
2022-12-12T23:36:29.513Z,14.77
2022-12-12T23:40:31.193Z,15.85
2022-12-12T23:44:32.993Z,15.05
2022-12-12T23:48:35.351Z,14.23
2022-12-12T23:52:36.966Z,14.52
2022-12-12T23:56:39.474Z,14.13
